createdAt,value
2022-12-24T00:00:03.239Z,94
2022-12-24T00:03:03.408Z,94
2022-12-24T00:06:03.087Z,94
2022-12-24T00:09:03.031Z,94
2022-12-24T00:12:03.013Z,94
2022-12-24T00:15:02.987Z,94
2022-12-24T00:18:03.093Z,94
2022-12-24T00:21:03.013Z,94
2022-12-24T00:24:02.965Z,94
2022-12-24T00:27:03.115Z,94
2022-12-24T00:30:03.115Z,94
2022-12-24T00:33:03.039Z,94.1
2022-12-24T00:36:03.080Z,94
2022-12-24T00:39:03.159Z,94
2022-12-24T00:42:03.026Z,94
2022-12-24T00:45:03.043Z,94
2022-12-24T00:48:02.978Z,94
2022-12-24T00:51:03.223Z,94
2022-12-24T00:54:03.023Z,94
2022-12-24T00:57:03.016Z,94
2022-12-24T01:00:03.034Z,94
2022-12-24T01:03:03.503Z,94
2022-12-24T01:06:03.079Z,94
2022-12-24T01:09:03.051Z,94
2022-12-24T01:12:03.081Z,94
2022-12-24T01:15:03.053Z,94
2022-12-24T01:18:02.945Z,94
2022-12-24T01:21:03.166Z,94
2022-12-24T01:24:03.059Z,93.8
2022-12-24T01:27:03.011Z,93.7
2022-12-24T01:30:03.116Z,93.7
2022-12-24T01:33:03.032Z,93.7
2022-12-24T01:36:03.080Z,93.7
2022-12-24T01:39:02.972Z,93.7
2022-12-24T01:42:02.976Z,93.6
2022-12-24T01:45:03.023Z,93.6
2022-12-24T01:48:03.002Z,93.6
2022-12-24T01:51:02.990Z,93.6
2022-12-24T01:54:03.079Z,93.6
2022-12-24T01:57:03.156Z,93.6
2022-12-24T02:00:03.029Z,93.6
2022-12-24T02:03:03.430Z,93.6
2022-12-24T02:06:02.983Z,93.6
2022-12-24T02:09:02.958Z,93.6
2022-12-24T02:12:03.089Z,93.6
2022-12-24T02:15:03.044Z,93.6
2022-12-24T02:18:03.052Z,93.6
2022-12-24T02:21:02.975Z,93.6
2022-12-24T02:24:03.040Z,93.6
2022-12-24T02:27:03.005Z,93.3
2022-12-24T02:30:03.140Z,93.3
2022-12-24T02:33:03.003Z,93.3
2022-12-24T02:36:02.988Z,93.3
2022-12-24T02:39:02.955Z,93.3
2022-12-24T02:42:03.136Z,93.3
2022-12-24T02:45:03.019Z,93.3
2022-12-24T02:48:02.958Z,93.3
2022-12-24T02:51:03.086Z,93.3
2022-12-24T02:54:03.084Z,93.3
2022-12-24T02:57:03.110Z,93.3
2022-12-24T03:00:03.134Z,93.3
2022-12-24T03:03:03.367Z,93.3
2022-12-24T03:06:03.081Z,93.3
2022-12-24T03:09:02.993Z,93.3
2022-12-24T03:12:03.055Z,93.3
2022-12-24T03:15:02.971Z,95.1
2022-12-24T03:18:03.105Z,95.1
2022-12-24T03:21:03.092Z,95.4
2022-12-24T03:24:03.071Z,95.4
2022-12-24T03:27:03.021Z,95.7
2022-12-24T03:30:03.027Z,95.7
2022-12-24T03:33:02.999Z,95.7
2022-12-24T03:36:02.949Z,95.7
2022-12-24T03:39:03.012Z,95.7
2022-12-24T03:42:03.006Z,95.7
2022-12-24T03:45:03.091Z,95.9
2022-12-24T03:48:03.024Z,95.9
2022-12-24T03:51:02.993Z,95.9
2022-12-24T03:54:03.231Z,95.9
2022-12-24T03:57:03.155Z,95.9
2022-12-24T04:00:03.222Z,95.7
2022-12-24T04:03:03.224Z,95.7
2022-12-24T04:06:02.978Z,95.7
2022-12-24T04:09:02.994Z,95.7
2022-12-24T04:12:03.079Z,95.7
2022-12-24T04:15:03.165Z,95.3
2022-12-24T04:18:02.986Z,95.1
2022-12-24T04:21:03.001Z,95.1
2022-12-24T04:24:03.029Z,95.1
2022-12-24T04:27:02.971Z,95.1
2022-12-24T04:30:03.197Z,95.1
2022-12-24T04:33:02.975Z,95.1
2022-12-24T04:36:03.026Z,95.1
2022-12-24T04:39:03.007Z,95.1
2022-12-24T04:42:03.044Z,95.1
2022-12-24T04:45:03.137Z,92.4
2022-12-24T04:48:03.029Z,92.4
2022-12-24T04:51:03.018Z,92.4
2022-12-24T04:54:03.026Z,92.4
2022-12-24T04:57:02.978Z,92.4
2022-12-24T05:00:03.347Z,92.4
2022-12-24T05:03:03.268Z,91.4
2022-12-24T05:06:04.055Z,90.9
2022-12-24T05:09:03.014Z,90.9
2022-12-24T05:12:03.023Z,90.9
2022-12-24T05:15:03.092Z,90.9
2022-12-24T05:18:02.982Z,90.9
2022-12-24T05:21:03.070Z,90.9
2022-12-24T05:24:03.111Z,90.9
2022-12-24T05:27:03.018Z,90.9
2022-12-24T05:30:03.120Z,89.8
2022-12-24T05:33:03.004Z,89.8
2022-12-24T05:36:03.135Z,89.8
2022-12-24T05:39:03.029Z,89.8
2022-12-24T05:42:03.016Z,89.6
2022-12-24T05:45:03.006Z,89.6
2022-12-24T05:48:02.965Z,89.6
2022-12-24T05:51:02.961Z,89.6
2022-12-24T05:54:02.981Z,89.6
2022-12-24T05:57:03.024Z,89.3
2022-12-24T06:00:03.020Z,89.3
2022-12-24T06:03:03.237Z,89.3
2022-12-24T06:06:02.978Z,89.3
2022-12-24T06:09:03.077Z,89.3
2022-12-24T06:12:02.960Z,89.3
2022-12-24T06:15:03.029Z,89.2
2022-12-24T06:18:02.989Z,89.2
2022-12-24T06:21:03.002Z,89.2
2022-12-24T06:24:02.989Z,89.2
2022-12-24T06:27:03.009Z,89.2
2022-12-24T06:30:02.948Z,89.2
2022-12-24T06:33:02.980Z,89.2
2022-12-24T06:36:03.010Z,89.2
2022-12-24T06:39:02.971Z,89.2
2022-12-24T06:42:03.077Z,89.2
2022-12-24T06:45:10.885Z,89.1
2022-12-24T06:48:03.080Z,89.1
2022-12-24T06:51:03.007Z,89.1
2022-12-24T06:54:03.017Z,89.1
2022-12-24T06:57:02.945Z,89.1
2022-12-24T07:00:03.212Z,88.8
2022-12-24T07:03:03.064Z,88.8
2022-12-24T07:06:02.995Z,88.8
2022-12-24T07:09:02.940Z,88.8
2022-12-24T07:12:03.042Z,88.8
2022-12-24T07:15:03.044Z,88.8
2022-12-24T07:18:03.007Z,87.9
2022-12-24T07:21:02.939Z,87.9
2022-12-24T07:24:02.931Z,87.9
2022-12-24T07:27:03.013Z,87.9
2022-12-24T07:30:03.065Z,87.9
2022-12-24T07:33:02.990Z,87.6
2022-12-24T07:36:03.068Z,87.6
2022-12-24T07:39:02.978Z,87.6
2022-12-24T07:42:03.030Z,87.6
2022-12-24T07:45:03.049Z,87.4
2022-12-24T07:48:03.229Z,87.4
2022-12-24T07:51:03.076Z,87.2
2022-12-24T07:54:03.098Z,87.2
2022-12-24T07:57:03.026Z,87.2
2022-12-24T08:00:03.224Z,87.2
2022-12-24T08:03:03.532Z,87.2
2022-12-24T08:06:03.035Z,87.2
2022-12-24T08:09:03.051Z,87
2022-12-24T08:12:03.056Z,87
2022-12-24T08:15:03.056Z,87
2022-12-24T08:18:03.075Z,87
2022-12-24T08:21:03.030Z,87
2022-12-24T08:24:03.023Z,87
2022-12-24T08:27:03.033Z,87
2022-12-24T08:30:03.078Z,87
2022-12-24T08:33:03.051Z,87
2022-12-24T08:36:03.071Z,87
2022-12-24T08:39:03.081Z,87
2022-12-24T08:42:03.154Z,87
2022-12-24T08:45:03.023Z,87
2022-12-24T08:48:03.073Z,87
2022-12-24T08:51:03.059Z,87
2022-12-24T08:54:03.107Z,87
2022-12-24T08:57:03.054Z,87
2022-12-24T09:00:03.150Z,87
2022-12-24T09:03:03.425Z,87
2022-12-24T09:06:03.052Z,87.3
2022-12-24T09:09:03.008Z,87.3
2022-12-24T09:12:03.055Z,87.3
2022-12-24T09:15:06.792Z,87.3
2022-12-24T09:18:03.072Z,87.3
2022-12-24T09:21:03.021Z,87.3
2022-12-24T09:24:03.088Z,87.3
2022-12-24T09:27:03.093Z,87.3
2022-12-24T09:30:03.100Z,87.3
2022-12-24T09:33:02.973Z,88
2022-12-24T09:36:03.021Z,88
2022-12-24T09:39:03.221Z,88
2022-12-24T09:42:03.060Z,88
2022-12-24T09:45:03.013Z,88.1
2022-12-24T09:48:03.088Z,88.1
2022-12-24T09:51:02.997Z,88.1
2022-12-24T09:54:03.027Z,88.2
2022-12-24T09:57:03.001Z,88.2
2022-12-24T10:00:03.232Z,88.2
2022-12-24T10:03:03.221Z,88.2
2022-12-24T10:06:03.061Z,88.2
2022-12-24T10:09:03.045Z,88.2
2022-12-24T10:12:03.159Z,88.2
2022-12-24T10:15:03.018Z,88.2
2022-12-24T10:18:02.973Z,88.2
2022-12-24T10:21:03.179Z,88.2
2022-12-24T10:24:03.091Z,88.2
2022-12-24T10:27:03.024Z,88.2
2022-12-24T10:30:03.046Z,88.2
2022-12-24T10:33:03.200Z,89.7
2022-12-24T10:36:12.403Z,89.8
2022-12-24T10:39:03.017Z,89.8
2022-12-24T10:42:03.065Z,89.8
2022-12-24T10:45:03.025Z,89.8
2022-12-24T10:48:03.027Z,89.8
2022-12-24T10:51:03.049Z,89.8
2022-12-24T10:54:03.093Z,89.8
2022-12-24T10:57:03.014Z,89.8
2022-12-24T11:00:03.173Z,89.8
2022-12-24T11:03:03.817Z,89.8
2022-12-24T11:06:03.086Z,89.8
2022-12-24T11:09:02.985Z,90.5
2022-12-24T11:12:11.816Z,90.5
2022-12-24T11:15:03.034Z,90.5
2022-12-24T11:18:03.067Z,90.5
2022-12-24T11:21:03.109Z,90.5
2022-12-24T11:24:03.155Z,90.5
2022-12-24T11:27:03.031Z,90.5
2022-12-24T11:30:12.108Z,90.7
2022-12-24T11:33:03.058Z,90.7
2022-12-24T11:36:03.069Z,90.7
2022-12-24T11:39:03.131Z,90.7
2022-12-24T11:42:03.007Z,90.7
2022-12-24T11:45:03.063Z,90.7
2022-12-24T11:48:03.001Z,90.7
2022-12-24T11:51:03.027Z,90.7
2022-12-24T11:54:03.067Z,90.7
2022-12-24T11:57:03.096Z,90.7
2022-12-24T12:00:03.137Z,90.7
2022-12-24T12:03:03.147Z,90.7
2022-12-24T12:06:03.046Z,90.7
2022-12-24T12:09:03.067Z,90.7
2022-12-24T12:12:03.170Z,90.7
2022-12-24T12:15:03.061Z,90.7
2022-12-24T12:18:03.044Z,90.7
2022-12-24T12:21:03.041Z,90.7
2022-12-24T12:24:03.121Z,90.8
2022-12-24T12:27:03.094Z,90.8
2022-12-24T12:30:03.201Z,90.5
2022-12-24T12:33:03.291Z,90.5
2022-12-24T12:36:03.029Z,90.5
2022-12-24T12:39:03.173Z,90.5
2022-12-24T12:42:03.034Z,89.7
2022-12-24T12:45:03.070Z,89.7
2022-12-24T12:48:03.096Z,89.7
2022-12-24T12:51:03.178Z,89.7
2022-12-24T12:54:03.059Z,90
2022-12-24T12:57:03.404Z,90
2022-12-24T13:00:03.135Z,90
2022-12-24T13:03:03.692Z,90
2022-12-24T13:06:03.149Z,90
2022-12-24T13:09:03.128Z,90
2022-12-24T13:12:03.081Z,90
2022-12-24T13:15:03.141Z,90
2022-12-24T13:18:03.126Z,90
2022-12-24T13:21:03.077Z,90
2022-12-24T13:24:03.072Z,90
2022-12-24T13:27:03.078Z,90
2022-12-24T13:30:12.657Z,90
2022-12-24T13:33:03.061Z,90.5
2022-12-24T13:36:03.097Z,90.5
2022-12-24T13:39:03.043Z,90.5
2022-12-24T13:42:03.380Z,90.5
2022-12-24T13:45:03.037Z,90.5
2022-12-24T13:48:03.096Z,90.5
2022-12-24T13:51:03.182Z,90.5
2022-12-24T13:54:03.002Z,90.5
2022-12-24T13:57:03.002Z,90.5
2022-12-24T14:00:03.204Z,90.9
2022-12-24T14:03:03.445Z,90.9
2022-12-24T14:06:03.172Z,90.9
2022-12-24T14:09:03.040Z,90.9
2022-12-24T14:12:03.178Z,90.9
2022-12-24T14:15:03.064Z,90.9
2022-12-24T14:18:03.161Z,90.9
2022-12-24T14:21:03.064Z,90.9
2022-12-24T14:24:03.244Z,90.9
2022-12-24T14:27:03.066Z,90.9
2022-12-24T14:30:03.130Z,91.1
2022-12-24T14:33:03.037Z,91.1
2022-12-24T14:36:02.999Z,91.1
2022-12-24T14:39:03.061Z,91.1
2022-12-24T14:42:03.066Z,91.1
2022-12-24T14:45:03.167Z,91.1
2022-12-24T14:48:03.068Z,91.2
2022-12-24T14:51:03.047Z,91.2
2022-12-24T14:54:03.069Z,91.2
2022-12-24T14:57:03.184Z,91.2
2022-12-24T15:00:03.343Z,91.2
2022-12-24T15:03:03.607Z,91.2
2022-12-24T15:06:03.154Z,91.1
2022-12-24T15:09:03.029Z,91.1
2022-12-24T15:12:03.013Z,91.1
2022-12-24T15:15:03.014Z,90.8
2022-12-24T15:18:03.024Z,90.8
2022-12-24T15:21:07.023Z,90.7
2022-12-24T15:24:02.954Z,90.7
2022-12-24T15:27:03.001Z,90.7
2022-12-24T15:30:03.155Z,87.6
2022-12-24T15:33:03.059Z,87.6
2022-12-24T15:36:03.132Z,87.6
2022-12-24T15:39:02.979Z,88.1
2022-12-24T15:42:03.030Z,88.1
2022-12-24T15:45:03.277Z,88.1
2022-12-24T15:48:03.076Z,88.1
2022-12-24T15:51:02.973Z,88.1
2022-12-24T15:54:03.007Z,88.1
2022-12-24T15:57:03.001Z,88.1
2022-12-24T16:00:03.211Z,88.1
2022-12-24T16:03:03.371Z,88.1
2022-12-24T16:06:03.016Z,88.1
2022-12-24T16:09:03.063Z,88.1
2022-12-24T16:12:06.102Z,88.1
2022-12-24T16:15:03.104Z,88.1
2022-12-24T16:18:02.992Z,88.1
2022-12-24T16:21:03.018Z,88.3
2022-12-24T16:24:02.997Z,88.4
2022-12-24T16:27:02.995Z,88.4
2022-12-24T16:30:03.039Z,88.4
2022-12-24T16:33:03.013Z,88.4
2022-12-24T16:36:03.018Z,87.6
2022-12-24T16:39:02.931Z,87.6
2022-12-24T16:42:03.035Z,87.6
2022-12-24T16:45:03.004Z,87.6
2022-12-24T16:48:02.963Z,87.6
2022-12-24T16:51:02.945Z,87.6
2022-12-24T16:54:03.040Z,87.6
2022-12-24T16:57:02.921Z,87.6
2022-12-24T17:00:03.053Z,87.6
2022-12-24T17:03:03.542Z,87.6
2022-12-24T17:06:03.013Z,87.6
2022-12-24T17:09:02.985Z,87.6
2022-12-24T17:12:03.063Z,87.7
2022-12-24T17:15:02.957Z,87.7
2022-12-24T17:18:03.034Z,87.7
2022-12-24T17:21:02.973Z,88.5
2022-12-24T17:24:03.016Z,88.5
2022-12-24T17:27:02.947Z,88.5
2022-12-24T17:30:03.086Z,88.5
2022-12-24T17:33:03.009Z,88.5
2022-12-24T17:36:03.018Z,88.5
2022-12-24T17:39:03.034Z,88.5
2022-12-24T17:42:02.995Z,88.5
2022-12-24T17:45:02.989Z,88.5
2022-12-24T17:48:03.032Z,88.5
2022-12-24T17:51:03.151Z,88.5
2022-12-24T17:54:03.031Z,88.5
2022-12-24T17:57:02.975Z,88.5
2022-12-24T18:00:03.049Z,89.2
2022-12-24T18:03:03.374Z,89.2
2022-12-24T18:06:02.983Z,89.2
2022-12-24T18:09:03.007Z,89.2
2022-12-24T18:12:03.004Z,89.2
2022-12-24T18:15:02.966Z,89.2
2022-12-24T18:18:02.962Z,89.3
2022-12-24T18:21:03.002Z,89.3
2022-12-24T18:24:02.990Z,89.3
2022-12-24T18:27:03.024Z,89.3
2022-12-24T18:30:03.080Z,89.3
2022-12-24T18:33:02.944Z,89.3
2022-12-24T18:36:03.005Z,89.3
2022-12-24T18:39:02.969Z,89.3
2022-12-24T18:42:03.038Z,89.3
2022-12-24T18:45:03.035Z,89.4
2022-12-24T18:48:03.038Z,89.4
2022-12-24T18:51:02.943Z,89.4
2022-12-24T18:54:03.052Z,89.4
2022-12-24T18:57:02.967Z,89.4
2022-12-24T19:00:03.039Z,89.4
2022-12-24T19:03:03.128Z,89.4
2022-12-24T19:06:03.301Z,89.4
2022-12-24T19:09:04.555Z,89.4
2022-12-24T19:12:02.968Z,89.4
2022-12-24T19:15:02.966Z,89.3
2022-12-24T19:18:03.021Z,89.3
2022-12-24T19:21:02.990Z,89.3
2022-12-24T19:24:02.965Z,89.3
2022-12-24T19:27:03.012Z,89.3
2022-12-24T19:30:03.041Z,89.3
2022-12-24T19:33:03.000Z,89.3
2022-12-24T19:36:02.980Z,89.3
2022-12-24T19:39:03.031Z,89.3
2022-12-24T19:42:03.055Z,89.3
2022-12-24T19:45:03.025Z,89
2022-12-24T19:48:02.982Z,89
2022-12-24T19:51:03.077Z,89
2022-12-24T19:54:03.071Z,89
2022-12-24T19:57:03.049Z,89
2022-12-24T20:00:03.017Z,89
2022-12-24T20:03:03.353Z,89
2022-12-24T20:06:02.978Z,89
2022-12-24T20:09:03.139Z,89
2022-12-24T20:12:03.072Z,88.7
2022-12-24T20:15:03.036Z,88.8
2022-12-24T20:18:02.981Z,88.8
2022-12-24T20:21:02.996Z,88.8
2022-12-24T20:24:02.952Z,88.8
2022-12-24T20:27:03.041Z,88.8
2022-12-24T20:30:03.003Z,88.8
2022-12-24T20:33:03.020Z,88.8
2022-12-24T20:36:03.006Z,88.8
2022-12-24T20:39:02.994Z,88.8
2022-12-24T20:42:03.191Z,88.8
2022-12-24T20:45:02.957Z,88.9
2022-12-24T20:48:03.005Z,88.9
2022-12-24T20:51:03.338Z,88.9
2022-12-24T20:54:03.237Z,88.9
2022-12-24T20:57:02.999Z,88.9
2022-12-24T21:00:03.172Z,88.9
2022-12-24T21:06:02.989Z,88.9
2022-12-24T21:09:02.946Z,88.9
2022-12-24T21:12:02.991Z,89.2
2022-12-24T21:15:02.981Z,89.2
2022-12-24T21:18:03.069Z,89.2
2022-12-24T21:21:02.951Z,89.2
2022-12-24T21:24:03.014Z,89.2
2022-12-24T21:27:03.000Z,89.2
2022-12-24T21:30:02.993Z,89.2
2022-12-24T21:33:03.136Z,89.2
2022-12-24T21:36:03.042Z,89.2
2022-12-24T21:39:03.021Z,89.2
2022-12-24T21:42:03.012Z,89.2
2022-12-24T21:45:03.123Z,88.7
2022-12-24T21:48:02.987Z,88.7
2022-12-24T21:51:02.979Z,88.7
2022-12-24T21:54:03.050Z,88.7
2022-12-24T21:57:03.040Z,88.7
2022-12-24T22:00:03.026Z,88.7
2022-12-24T22:03:03.455Z,88.3
2022-12-24T22:06:03.054Z,87.9
2022-12-24T22:09:03.045Z,87.9
2022-12-24T22:12:02.975Z,87.9
2022-12-24T22:15:02.975Z,87.9
2022-12-24T22:18:03.023Z,87.9
2022-12-24T22:21:02.970Z,87.9
2022-12-24T22:24:02.954Z,87.9
2022-12-24T22:27:03.003Z,87.9
2022-12-24T22:30:02.996Z,87.4
2022-12-24T22:33:03.020Z,87.4
2022-12-24T22:36:02.981Z,87.4
2022-12-24T22:39:02.993Z,87.4
2022-12-24T22:42:03.008Z,87.4
2022-12-24T22:45:02.984Z,87.4
2022-12-24T22:48:03.026Z,87.4
2022-12-24T22:51:02.971Z,87.4
2022-12-24T22:54:03.028Z,87.4
2022-12-24T22:57:02.993Z,87.4
2022-12-24T23:00:03.222Z,87.4
2022-12-24T23:03:03.392Z,86.9
2022-12-24T23:06:02.955Z,86.9
2022-12-24T23:09:02.938Z,86.9
2022-12-24T23:12:02.984Z,86.8
2022-12-24T23:15:03.051Z,86.8
2022-12-24T23:18:02.976Z,86.8
2022-12-24T23:21:02.980Z,86.8
2022-12-24T23:24:02.917Z,86.8
2022-12-24T23:27:03.736Z,86.8
2022-12-24T23:30:02.990Z,86.8
2022-12-24T23:33:02.959Z,86.8
2022-12-24T23:36:03.014Z,86.8
2022-12-24T23:39:03.430Z,86.8
2022-12-24T23:42:02.946Z,86.8
2022-12-24T23:45:03.007Z,86.4
2022-12-24T23:48:03.007Z,86.4
2022-12-24T23:51:03.000Z,86.4
2022-12-24T23:54:03.016Z,86.4
2022-12-24T23:57:02.960Z,86.4
